EDDR/SCN METAR and TAF weather

Enter ICAO airport designator
Station Type Date Time Source
EDDR METAR 2019/08/22 02:50 UTC NOAA

EDDR 220250Z 05004KT 020V080 CAVOK 12/09 Q1025


Station Type Date Time Source
EDDR Decoded METAR 2019/08/22 02:50 UTC NOAA

Station name not available
Aug 21, 2019 - 10:50 PM EDT / 2019.08.22 0250 UTC
Wind: from the NE (050 degrees) at 5 MPH (4 KT) (direction variable):0
Visibility: greater than 7 mile(s):0
Temperature: 53 F (12 C)
Dew Point: 48 F (9 C)
Relative Humidity: 81%
Pressure (altimeter): 30.27 in. Hg (1025 hPa)
ob: EDDR 220250Z 05004KT 020V080 CAVOK 12/09 Q1025
cycle: 3

Station Type Date Time Source
EDDR TAF 2019/08/21 18:27 UTC NOAA

TAF EDDR 211700Z 2118/2218 06005KT CAVOK

Example: see airport list